createdAt,value
2023-01-28T00:00:00.952Z,60.81
2023-01-28T00:01:32.571Z,60.83
2023-01-28T00:03:04.343Z,61.21
2023-01-28T00:04:36.098Z,61.27
2023-01-28T00:06:08.487Z,60.62
2023-01-28T00:07:40.214Z,61.27
2023-01-28T00:09:11.984Z,61.15
2023-01-28T00:10:50.992Z,61.10
2023-01-28T00:12:22.800Z,60.95
2023-01-28T00:13:54.527Z,60.79
2023-01-28T00:15:29.023Z,61.07
2023-01-28T00:17:02.539Z,60.69
2023-01-28T00:18:34.159Z,61.11
2023-01-28T00:20:05.996Z,60.69
2023-01-28T00:21:37.674Z,60.71
2023-01-28T00:23:09.266Z,60.55
2023-01-28T00:24:41.128Z,60.61
2023-01-28T00:26:13.813Z,61.23
2023-01-28T00:27:45.503Z,60.62
2023-01-28T00:29:17.183Z,60.60
2023-01-28T00:30:49.493Z,60.57
2023-01-28T00:32:21.422Z,60.78
2023-01-28T00:33:53.445Z,60.93
2023-01-28T00:35:25.048Z,60.68
2023-01-28T00:36:59.555Z,60.78
2023-01-28T00:38:31.210Z,60.59
2023-01-28T00:40:02.908Z,60.59
2023-01-28T00:41:34.644Z,60.79
2023-01-28T00:43:06.484Z,60.55
2023-01-28T00:44:38.265Z,60.66
2023-01-28T00:46:10.620Z,60.63
2023-01-28T00:47:42.170Z,60.77
2023-01-28T00:49:13.771Z,60.90
2023-01-28T00:50:45.795Z,61.17
2023-01-28T00:52:17.493Z,60.56
2023-01-28T00:53:49.048Z,61.01
2023-01-28T00:55:21.689Z,61.02
2023-01-28T00:56:53.871Z,60.66
2023-01-28T00:58:25.737Z,60.48
2023-01-28T00:59:57.373Z,61.23
2023-01-28T01:01:29.027Z,61.17
2023-01-28T01:03:00.701Z,60.78
2023-01-28T01:04:35.418Z,61.07
2023-01-28T01:06:07.210Z,60.76
2023-01-28T01:07:44.648Z,60.79
2023-01-28T01:09:16.213Z,60.84
2023-01-28T01:10:49.643Z,60.62
2023-01-28T01:12:23.245Z,60.53
2023-01-28T01:13:55.547Z,61.08
2023-01-28T01:15:27.139Z,60.70
2023-01-28T01:16:58.712Z,60.70
2023-01-28T01:18:30.398Z,60.60
2023-01-28T01:20:01.979Z,60.92
2023-01-28T01:21:33.538Z,60.78
2023-01-28T01:23:05.147Z,60.92
2023-01-28T01:24:36.739Z,60.95
2023-01-28T01:26:08.224Z,61.06
2023-01-28T01:27:39.741Z,60.36
2023-01-28T01:29:11.314Z,60.25
2023-01-28T01:30:42.824Z,60.40
2023-01-28T01:32:14.348Z,60.57
2023-01-28T01:33:46.541Z,61.32
2023-01-28T01:35:18.755Z,60.70
2023-01-28T01:36:50.512Z,60.90
2023-01-28T01:38:22.093Z,60.98
2023-01-28T01:39:53.801Z,61.14
2023-01-28T01:41:26.734Z,61.06
2023-01-28T01:42:58.363Z,60.59
2023-01-28T01:44:48.511Z,60.50
2023-01-28T01:46:32.842Z,60.81
2023-01-28T01:48:06.070Z,60.76
2023-01-28T01:49:38.891Z,61.19
2023-01-28T01:51:11.340Z,61.26
2023-01-28T01:52:42.848Z,60.74
2023-01-28T01:54:14.634Z,61.36
2023-01-28T01:55:46.985Z,60.97
2023-01-28T01:57:29.684Z,61.22
2023-01-28T01:59:02.039Z,60.94
2023-01-28T02:00:34.723Z,61.34
2023-01-28T02:02:06.446Z,61.01
2023-01-28T02:03:56.665Z,60.90
2023-01-28T02:05:28.395Z,60.87
2023-01-28T02:07:00.835Z,60.67
2023-01-28T02:08:34.594Z,60.67
2023-01-28T02:10:06.387Z,60.87
2023-01-28T02:11:38.038Z,61.21
2023-01-28T02:13:09.610Z,60.84
2023-01-28T02:14:42.502Z,60.61
2023-01-28T02:16:18.541Z,60.83
2023-01-28T02:17:50.120Z,61.01
2023-01-28T02:19:21.936Z,61.39
2023-01-28T02:20:59.377Z,61.06
2023-01-28T02:23:00.570Z,60.75
2023-01-28T02:24:38.038Z,61.44
2023-01-28T02:26:28.647Z,60.95
2023-01-28T02:28:06.063Z,61.25
2023-01-28T02:29:38.963Z,60.57
2023-01-28T02:31:16.870Z,60.63
2023-01-28T02:33:01.054Z,60.88
2023-01-28T02:34:32.648Z,60.62
2023-01-28T02:36:24.462Z,61.23
2023-01-28T02:37:58.630Z,60.73
2023-01-28T02:39:30.688Z,60.83
2023-01-28T02:41:06.117Z,61.32
2023-01-28T02:42:38.029Z,61.03
2023-01-28T02:44:09.547Z,60.77
2023-01-28T02:45:59.636Z,60.99
2023-01-28T02:47:49.891Z,60.99
2023-01-28T02:49:21.497Z,61.26
2023-01-28T02:50:59.621Z,60.81
2023-01-28T02:53:00.044Z,60.74
2023-01-28T02:54:52.312Z,60.77
2023-01-28T02:56:32.026Z,61.34
2023-01-28T02:58:09.987Z,60.94
2023-01-28T02:59:43.291Z,60.79
2023-01-28T03:01:15.408Z,61.25
2023-01-28T03:02:51.002Z,61.28
2023-01-28T03:04:51.803Z,60.59
2023-01-28T03:06:24.827Z,61.20
2023-01-28T03:07:56.636Z,60.88
2023-01-28T03:09:28.222Z,60.77
2023-01-28T03:11:18.395Z,60.55
2023-01-28T03:13:09.625Z,60.26
2023-01-28T03:14:59.901Z,60.48
2023-01-28T03:16:50.304Z,60.91
2023-01-28T03:18:44.124Z,60.37
2023-01-28T03:20:34.533Z,60.33
2023-01-28T03:22:24.473Z,60.70
2023-01-28T03:24:34.521Z,60.56
2023-01-28T03:26:24.676Z,60.83
2023-01-28T03:28:19.999Z,60.76
2023-01-28T03:30:10.619Z,60.69
2023-01-28T03:32:03.244Z,61.07
2023-01-28T03:33:53.252Z,60.68
2023-01-28T03:35:44.632Z,60.61
2023-01-28T03:37:16.296Z,61.08
2023-01-28T03:38:48.826Z,60.67
2023-01-28T03:40:21.042Z,60.76
2023-01-28T03:42:00.401Z,60.72
2023-01-28T03:43:31.958Z,60.38
2023-01-28T03:45:06.694Z,60.26
2023-01-28T03:46:39.700Z,60.91
2023-01-28T03:48:11.741Z,61.16
2023-01-28T03:49:45.649Z,60.58
2023-01-28T03:51:18.237Z,60.58
2023-01-28T03:52:49.812Z,60.80
2023-01-28T03:54:21.348Z,61.13
2023-01-28T03:55:53.257Z,60.95
2023-01-28T03:57:25.549Z,60.72
2023-01-28T03:58:57.416Z,60.94
2023-01-28T04:00:28.892Z,60.75
2023-01-28T04:02:00.662Z,60.87
2023-01-28T04:03:32.262Z,61.15
2023-01-28T04:05:07.156Z,60.99
2023-01-28T04:06:38.748Z,61.28
2023-01-28T04:08:10.930Z,60.82
2023-01-28T04:09:43.083Z,61.03
2023-01-28T04:11:19.515Z,61.32
2023-01-28T04:12:51.395Z,60.75
2023-01-28T04:14:22.934Z,61.02
2023-01-28T04:15:54.630Z,61.27
2023-01-28T04:17:26.115Z,61.41
2023-01-28T04:18:58.934Z,60.79
2023-01-28T04:20:30.755Z,61.14
2023-01-28T04:22:02.276Z,61.33
2023-01-28T04:23:34.397Z,61.13
2023-01-28T04:25:06.143Z,60.77
2023-01-28T04:26:37.737Z,60.81
2023-01-28T04:28:09.769Z,60.75
2023-01-28T04:29:41.746Z,61.02
2023-01-28T04:31:13.788Z,61.13
2023-01-28T04:32:46.469Z,60.75
2023-01-28T04:34:19.928Z,60.99
2023-01-28T04:35:52.276Z,61.01
2023-01-28T04:37:24.108Z,61.21
2023-01-28T04:38:56.235Z,61.11
2023-01-28T04:40:28.322Z,61.11
2023-01-28T04:41:59.823Z,61.23
2023-01-28T04:43:31.354Z,61.02
2023-01-28T04:45:02.890Z,61.14
2023-01-28T04:46:34.391Z,61.11
2023-01-28T04:48:06.224Z,60.55
2023-01-28T04:49:40.174Z,60.96
2023-01-28T04:51:11.693Z,60.73
2023-01-28T04:52:43.447Z,61.44
2023-01-28T04:54:15.378Z,60.96
2023-01-28T04:55:47.002Z,60.75
2023-01-28T04:57:18.589Z,61.07
2023-01-28T04:58:50.514Z,61.04
2023-01-28T05:00:22.425Z,60.76
2023-01-28T05:01:53.979Z,61.19
2023-01-28T05:03:25.803Z,61.02
2023-01-28T05:04:57.314Z,60.90
2023-01-28T05:06:29.368Z,60.80
2023-01-28T05:08:01.010Z,61.13
2023-01-28T05:09:32.564Z,61.33
2023-01-28T05:11:04.116Z,60.91
2023-01-28T05:12:35.588Z,61.38
2023-01-28T05:14:07.761Z,60.89
2023-01-28T05:15:39.323Z,61.00
2023-01-28T05:17:13.790Z,61.32
2023-01-28T05:18:48.205Z,60.93
2023-01-28T05:20:20.151Z,61.01
2023-01-28T05:21:53.447Z,60.78
2023-01-28T05:23:24.937Z,60.68
2023-01-28T05:24:57.116Z,60.78
2023-01-28T05:26:35.838Z,61.08
2023-01-28T05:28:07.299Z,61.09
2023-01-28T05:29:39.056Z,60.92
2023-01-28T05:31:10.696Z,61.32
2023-01-28T05:32:42.263Z,60.79
2023-01-28T05:34:14.294Z,60.74
2023-01-28T05:35:45.763Z,61.30
2023-01-28T05:37:17.646Z,61.14
2023-01-28T05:38:49.219Z,60.73
2023-01-28T05:40:20.752Z,61.18
2023-01-28T05:41:52.299Z,60.82
2023-01-28T05:43:25.964Z,60.56
2023-01-28T05:44:57.564Z,60.95
2023-01-28T05:46:29.378Z,60.95
2023-01-28T05:48:01.199Z,61.13
2023-01-28T05:49:32.751Z,60.55
2023-01-28T05:51:05.473Z,61.06
2023-01-28T05:52:37.135Z,60.56
2023-01-28T05:54:12.415Z,61.05
2023-01-28T05:55:44.008Z,60.71
2023-01-28T05:57:15.764Z,60.78
2023-01-28T05:58:47.277Z,60.14
2023-01-28T06:00:19.407Z,60.27
2023-01-28T06:01:51.116Z,60.27
2023-01-28T06:03:22.679Z,60.61
2023-01-28T06:04:54.468Z,60.86
2023-01-28T06:06:26.172Z,60.77
2023-01-28T06:07:58.029Z,60.89
2023-01-28T06:09:29.636Z,60.67
2023-01-28T06:11:01.192Z,60.90
2023-01-28T06:12:32.699Z,60.75
2023-01-28T06:14:04.287Z,60.44
2023-01-28T06:15:36.017Z,60.20
2023-01-28T06:17:07.683Z,60.77
2023-01-28T06:18:41.799Z,60.95
2023-01-28T06:20:13.764Z,60.87
2023-01-28T06:21:45.564Z,60.85
2023-01-28T06:23:17.098Z,60.68
2023-01-28T06:24:48.643Z,60.51
2023-01-28T06:26:20.376Z,60.62
2023-01-28T06:27:51.930Z,60.58
2023-01-28T06:29:24.027Z,60.58
2023-01-28T06:30:55.656Z,60.65
2023-01-28T06:32:27.626Z,60.83
2023-01-28T06:33:59.190Z,60.80
2023-01-28T06:35:30.709Z,60.41
2023-01-28T06:37:04.463Z,61.12
2023-01-28T06:38:38.903Z,60.67
2023-01-28T06:40:11.965Z,60.97
2023-01-28T06:41:43.556Z,60.42
2023-01-28T06:43:15.268Z,60.50
2023-01-28T06:44:47.055Z,60.71
2023-01-28T06:46:18.699Z,60.98
2023-01-28T06:47:50.308Z,60.55
2023-01-28T06:49:22.188Z,60.41
2023-01-28T06:50:54.378Z,60.61
2023-01-28T06:52:26.059Z,60.79
2023-01-28T06:53:57.668Z,60.95
2023-01-28T06:55:31.234Z,60.84
2023-01-28T06:57:02.904Z,60.55
2023-01-28T06:58:35.287Z,60.21
2023-01-28T07:00:08.466Z,60.94
2023-01-28T07:01:40.511Z,60.96
2023-01-28T07:03:12.276Z,61.11
2023-01-28T07:04:43.865Z,60.53
2023-01-28T07:06:15.449Z,61.09
2023-01-28T07:07:47.203Z,60.83
2023-01-28T07:09:18.733Z,60.21
2023-01-28T07:10:50.681Z,60.88
2023-01-28T07:12:22.340Z,60.46
2023-01-28T07:13:54.322Z,60.99
2023-01-28T07:15:25.946Z,60.97
2023-01-28T07:16:57.921Z,60.74
2023-01-28T07:18:30.262Z,60.72
2023-01-28T07:20:02.340Z,60.34
2023-01-28T07:21:34.431Z,60.81
2023-01-28T07:23:06.031Z,60.81
2023-01-28T07:24:38.454Z,61.36
2023-01-28T07:26:10.265Z,61.02
2023-01-28T07:27:51.491Z,60.86
2023-01-28T07:29:23.086Z,60.58
2023-01-28T07:30:56.539Z,61.02
2023-01-28T07:32:29.137Z,60.84
2023-01-28T07:34:00.650Z,60.89
2023-01-28T07:35:32.668Z,60.85
2023-01-28T07:37:04.175Z,60.78
2023-01-28T07:38:35.887Z,61.15
2023-01-28T07:40:07.896Z,60.69
2023-01-28T07:41:39.396Z,60.76
2023-01-28T07:43:11.026Z,60.67
2023-01-28T07:44:42.995Z,60.10
2023-01-28T07:46:14.847Z,60.10
2023-01-28T07:47:53.316Z,60.50
2023-01-28T07:49:25.001Z,60.41
2023-01-28T07:50:58.839Z,60.14
2023-01-28T07:52:30.484Z,60.15
2023-01-28T07:54:02.143Z,60.19
2023-01-28T07:55:36.160Z,60.74
2023-01-28T07:57:10.089Z,60.33
2023-01-28T07:58:42.207Z,60.39
2023-01-28T08:00:14.568Z,60.56
2023-01-28T08:01:46.428Z,60.04
2023-01-28T08:03:18.212Z,60.81
2023-01-28T08:04:50.378Z,60.26
2023-01-28T08:06:22.407Z,60.26
2023-01-28T08:07:53.971Z,59.72
2023-01-28T08:09:25.580Z,60.32
2023-01-28T08:10:58.722Z,59.83
2023-01-28T08:12:30.498Z,59.77
2023-01-28T08:14:02.228Z,60.57
2023-01-28T08:15:35.175Z,60.28
2023-01-28T08:17:07.027Z,60.40
2023-01-28T08:18:38.645Z,59.95
2023-01-28T08:20:10.512Z,59.80
2023-01-28T08:21:42.113Z,60.52
2023-01-28T08:23:13.709Z,60.33
2023-01-28T08:24:46.047Z,60.05
2023-01-28T08:26:18.963Z,60.00
2023-01-28T08:27:50.668Z,60.35
2023-01-28T08:29:22.723Z,59.89
2023-01-28T08:30:54.406Z,59.54
2023-01-28T08:32:26.084Z,60.03
2023-01-28T08:33:57.978Z,59.86
2023-01-28T08:35:30.339Z,60.32
2023-01-28T08:37:01.893Z,60.17
2023-01-28T08:38:34.533Z,60.27
2023-01-28T08:40:06.435Z,60.42
2023-01-28T08:41:37.998Z,60.23
2023-01-28T08:43:10.019Z,60.36
2023-01-28T08:44:41.591Z,59.87
2023-01-28T08:46:14.747Z,60.36
2023-01-28T08:47:55.668Z,59.70
2023-01-28T08:49:30.178Z,60.01
2023-01-28T08:51:01.863Z,60.27
2023-01-28T08:52:33.579Z,60.58
2023-01-28T08:54:05.157Z,60.21
2023-01-28T08:55:36.678Z,60.02
2023-01-28T08:57:08.311Z,60.64
2023-01-28T08:58:41.166Z,60.07
2023-01-28T09:00:13.647Z,60.17
2023-01-28T09:01:45.389Z,59.83
2023-01-28T09:03:17.524Z,60.10
2023-01-28T09:04:49.087Z,59.66
2023-01-28T09:06:20.724Z,60.12
2023-01-28T09:07:52.318Z,60.11
2023-01-28T09:09:23.988Z,59.91
2023-01-28T09:10:58.982Z,60.56
2023-01-28T09:12:30.932Z,60.36
2023-01-28T09:14:02.583Z,60.01
2023-01-28T09:15:34.556Z,60.42
2023-01-28T09:17:06.036Z,60.11
2023-01-28T09:18:37.658Z,59.87
2023-01-28T09:20:09.554Z,59.77
2023-01-28T09:21:41.085Z,59.65
2023-01-28T09:23:12.711Z,59.72
2023-01-28T09:24:44.610Z,59.59
2023-01-28T09:26:18.900Z,59.74
2023-01-28T09:27:50.454Z,59.66
2023-01-28T09:29:22.596Z,59.70
2023-01-28T09:30:54.408Z,59.52
2023-01-28T09:32:26.017Z,59.67
2023-01-28T09:33:57.958Z,60.15
2023-01-28T09:35:29.986Z,59.66
2023-01-28T09:37:02.945Z,59.93
2023-01-28T09:38:38.449Z,59.79
2023-01-28T09:40:16.424Z,60.01
2023-01-28T09:42:03.629Z,59.71
2023-01-28T09:43:55.014Z,59.64
2023-01-28T09:45:35.295Z,60.09
2023-01-28T09:47:10.044Z,59.55
2023-01-28T09:48:45.733Z,59.52
2023-01-28T09:50:27.762Z,59.34
2023-01-28T09:51:59.722Z,59.21
2023-01-28T09:53:33.087Z,59.25
2023-01-28T09:55:08.512Z,59.68
2023-01-28T09:56:42.007Z,59.63
2023-01-28T09:58:16.026Z,59.47
2023-01-28T09:59:47.659Z,59.56
2023-01-28T10:01:31.008Z,59.44
2023-01-28T10:03:10.628Z,59.38
2023-01-28T10:04:45.281Z,59.44
2023-01-28T10:06:18.496Z,59.65
2023-01-28T10:07:53.706Z,59.75
2023-01-28T10:09:28.575Z,59.58
2023-01-28T10:11:07.531Z,60.48
2023-01-28T10:12:47.160Z,59.98
2023-01-28T10:14:24.369Z,60.19
2023-01-28T10:15:59.213Z,59.91
2023-01-28T10:17:50.503Z,60.07
2023-01-28T10:19:29.628Z,60.06
2023-01-28T10:21:22.672Z,60.08
2023-01-28T10:23:04.067Z,60.28
2023-01-28T10:24:44.740Z,60.02
2023-01-28T10:26:23.940Z,59.72
2023-01-28T10:27:55.815Z,59.99
2023-01-28T10:29:31.862Z,59.88
2023-01-28T10:31:03.944Z,59.81
2023-01-28T10:32:37.544Z,60.25
2023-01-28T10:34:10.441Z,60.20
2023-01-28T10:35:46.025Z,60.15
2023-01-28T10:37:17.687Z,60.03
2023-01-28T10:38:49.658Z,59.95
2023-01-28T10:40:21.637Z,59.84
2023-01-28T10:41:58.150Z,60.10
2023-01-28T10:43:34.819Z,59.67
2023-01-28T10:45:16.256Z,59.90
2023-01-28T10:46:50.823Z,59.88
2023-01-28T10:48:38.278Z,60.05
2023-01-28T10:50:18.218Z,59.93
2023-01-28T10:51:50.655Z,59.63
2023-01-28T10:53:34.065Z,59.40
2023-01-28T10:55:06.464Z,59.89
2023-01-28T10:56:38.475Z,59.76
2023-01-28T10:58:14.768Z,59.42
2023-01-28T10:59:46.701Z,59.52
2023-01-28T11:01:21.652Z,59.47
2023-01-28T11:02:53.674Z,60.00
2023-01-28T11:04:25.727Z,59.73
2023-01-28T11:05:58.286Z,60.00
2023-01-28T11:07:31.558Z,59.75
2023-01-28T11:09:03.631Z,59.91
2023-01-28T11:10:36.498Z,59.50
2023-01-28T11:12:19.217Z,59.81
2023-01-28T11:13:51.977Z,59.45
2023-01-28T11:15:24.210Z,59.29
2023-01-28T11:16:59.129Z,59.41
2023-01-28T11:18:39.074Z,59.11
2023-01-28T11:20:14.303Z,58.83
2023-01-28T11:21:50.268Z,58.98
2023-01-28T11:23:27.034Z,59.37
2023-01-28T11:25:00.052Z,59.27
2023-01-28T11:26:33.575Z,58.90
2023-01-28T11:28:20.285Z,59.08
2023-01-28T11:29:51.901Z,58.53
2023-01-28T11:31:24.566Z,59.18
2023-01-28T11:33:25.458Z,59.06
2023-01-28T11:35:02.383Z,58.55
2023-01-28T11:36:34.277Z,58.86
2023-01-28T11:38:15.129Z,59.00
2023-01-28T11:39:46.714Z,58.50
2023-01-28T11:41:18.501Z,59.04
2023-01-28T11:42:50.580Z,58.96
2023-01-28T11:44:27.792Z,58.78
2023-01-28T11:46:05.052Z,58.73
2023-01-28T11:47:37.398Z,59.05
2023-01-28T11:49:27.995Z,58.86
2023-01-28T11:51:16.374Z,58.97
2023-01-28T11:53:05.906Z,59.01
2023-01-28T11:54:45.470Z,58.90
2023-01-28T11:56:26.538Z,59.06
2023-01-28T11:58:12.493Z,59.06
2023-01-28T11:59:46.659Z,59.00
2023-01-28T12:01:18.383Z,58.75
2023-01-28T12:02:52.210Z,58.86
2023-01-28T12:04:29.495Z,58.86
2023-01-28T12:06:16.758Z,58.60
2023-01-28T12:07:54.341Z,58.61
2023-01-28T12:09:26.268Z,58.52
2023-01-28T12:11:02.637Z,58.45
2023-01-28T12:12:44.857Z,58.15
2023-01-28T12:14:29.335Z,58.57
2023-01-28T12:16:13.612Z,58.20
2023-01-28T12:18:03.872Z,58.37
2023-01-28T12:19:50.987Z,58.32
2023-01-28T12:21:30.088Z,58.75
2023-01-28T12:23:37.603Z,58.40
2023-01-28T12:25:28.795Z,58.44
2023-01-28T12:27:01.750Z,58.17
2023-01-28T12:28:55.415Z,57.92
2023-01-28T12:30:27.025Z,58.44
2023-01-28T12:31:59.049Z,58.28
2023-01-28T12:33:40.926Z,58.25
2023-01-28T12:35:15.672Z,58.21
2023-01-28T12:36:47.377Z,58.44
2023-01-28T12:38:43.924Z,58.71
2023-01-28T12:40:19.641Z,58.59
2023-01-28T12:41:52.349Z,58.55
2023-01-28T12:43:26.786Z,58.36
2023-01-28T12:45:01.255Z,58.68
2023-01-28T12:46:37.924Z,58.39
2023-01-28T12:48:14.307Z,58.34
2023-01-28T12:49:47.600Z,58.43
2023-01-28T12:51:24.650Z,58.48
2023-01-28T12:53:21.288Z,58.19
2023-01-28T12:55:08.031Z,58.52
2023-01-28T12:56:49.744Z,57.76
2023-01-28T12:58:23.193Z,57.98
2023-01-28T12:59:57.902Z,58.16
2023-01-28T13:01:37.480Z,58.15
2023-01-28T13:03:11.579Z,57.90
2023-01-28T13:04:43.466Z,58.36
2023-01-28T13:06:18.300Z,58.12
2023-01-28T13:08:06.816Z,58.67
2023-01-28T13:09:39.181Z,58.24
2023-01-28T13:11:15.757Z,58.70
2023-01-28T13:12:47.434Z,58.26
2023-01-28T13:14:19.956Z,58.60
2023-01-28T13:15:51.523Z,58.51
2023-01-28T13:17:30.472Z,57.94
2023-01-28T13:19:07.176Z,57.76
2023-01-28T13:20:40.105Z,58.32
2023-01-28T13:22:32.727Z,57.71
2023-01-28T13:24:19.475Z,57.93
2023-01-28T13:25:53.309Z,58.37
2023-01-28T13:27:27.414Z,58.03
2023-01-28T13:29:10.109Z,58.12
2023-01-28T13:30:50.794Z,57.97
2023-01-28T13:32:27.578Z,57.98
2023-01-28T13:33:59.238Z,58.12
2023-01-28T13:35:38.336Z,58.36
2023-01-28T13:37:17.034Z,58.09
2023-01-28T13:38:49.059Z,57.83
2023-01-28T13:40:23.542Z,57.99
2023-01-28T13:41:56.184Z,57.92
2023-01-28T13:43:29.163Z,58.13
2023-01-28T13:45:16.051Z,57.34
2023-01-28T13:46:47.848Z,57.79
2023-01-28T13:48:39.792Z,57.81
2023-01-28T13:50:34.501Z,57.91
2023-01-28T13:52:14.433Z,57.92
2023-01-28T13:53:48.115Z,57.93
2023-01-28T13:55:41.731Z,57.74
2023-01-28T13:57:17.328Z,57.81
2023-01-28T13:58:49.116Z,57.78
2023-01-28T14:00:30.171Z,57.77
2023-01-28T14:02:22.728Z,57.55
2023-01-28T14:03:57.894Z,57.88
2023-01-28T14:05:41.943Z,57.62
2023-01-28T14:07:23.916Z,57.87
2023-01-28T14:09:11.179Z,57.67
2023-01-28T14:11:01.717Z,57.77
2023-01-28T14:12:33.511Z,57.95
2023-01-28T14:14:32.758Z,57.77
2023-01-28T14:16:14.337Z,57.71
2023-01-28T14:17:49.121Z,57.67
2023-01-28T14:19:25.699Z,57.73
2023-01-28T14:20:58.682Z,57.85
2023-01-28T14:22:30.480Z,57.76
2023-01-28T14:24:02.973Z,57.61
2023-01-28T14:25:34.884Z,57.82
2023-01-28T14:27:12.437Z,57.56
2023-01-28T14:28:47.130Z,57.57
2023-01-28T14:30:19.073Z,57.51
2023-01-28T14:31:51.295Z,57.65
2023-01-28T14:33:23.099Z,57.72
2023-01-28T14:34:57.432Z,57.76
2023-01-28T14:36:29.410Z,57.65
2023-01-28T14:38:01.769Z,57.69
2023-01-28T14:39:34.530Z,57.87
2023-01-28T14:41:06.654Z,57.97
2023-01-28T14:42:39.981Z,57.92
2023-01-28T14:44:13.639Z,57.79
2023-01-28T14:45:51.453Z,57.86
2023-01-28T14:47:23.758Z,57.71
2023-01-28T14:49:00.145Z,57.86
2023-01-28T14:50:34.736Z,57.83
2023-01-28T14:52:10.832Z,57.71
2023-01-28T14:53:45.427Z,57.68
2023-01-28T14:55:33.105Z,57.49
2023-01-28T14:57:14.959Z,57.50
2023-01-28T14:58:47.368Z,57.59
2023-01-28T15:00:23.796Z,57.61
2023-01-28T15:01:56.183Z,57.54
2023-01-28T15:03:28.600Z,57.84
2023-01-28T15:05:09.822Z,57.26
2023-01-28T15:06:42.345Z,57.60
2023-01-28T15:08:21.369Z,57.69
2023-01-28T15:10:05.687Z,57.79
2023-01-28T15:11:39.083Z,57.40
2023-01-28T15:13:31.193Z,57.33
2023-01-28T15:15:12.837Z,57.37
2023-01-28T15:16:47.773Z,57.52
2023-01-28T15:18:28.313Z,57.53
2023-01-28T15:20:01.645Z,57.67
2023-01-28T15:21:35.631Z,57.60
2023-01-28T15:23:07.739Z,57.88
2023-01-28T15:24:41.171Z,57.17
2023-01-28T15:26:16.199Z,57.37
2023-01-28T15:27:48.665Z,57.54
2023-01-28T15:29:23.034Z,57.32
2023-01-28T15:30:54.867Z,57.62
2023-01-28T15:32:28.505Z,57.17
2023-01-28T15:34:01.335Z,57.33
2023-01-28T15:35:34.513Z,57.46
2023-01-28T15:37:07.433Z,57.46
2023-01-28T15:38:42.648Z,57.39
2023-01-28T15:40:18.510Z,57.78
2023-01-28T15:41:51.725Z,57.47
2023-01-28T15:43:25.407Z,57.38
2023-01-28T15:45:00.133Z,57.58
2023-01-28T15:46:36.621Z,57.33
2023-01-28T15:48:09.239Z,57.81
2023-01-28T15:49:42.723Z,57.55
2023-01-28T15:51:21.074Z,57.79
2023-01-28T15:52:52.719Z,57.31
2023-01-28T15:54:24.987Z,57.44
2023-01-28T15:56:04.621Z,57.01
2023-01-28T15:57:36.240Z,57.70
2023-01-28T15:59:17.346Z,57.40
2023-01-28T16:00:49.411Z,57.29
2023-01-28T16:02:22.417Z,57.41
2023-01-28T16:04:01.136Z,57.83
2023-01-28T16:05:39.056Z,57.44
2023-01-28T16:07:10.755Z,57.32
2023-01-28T16:08:45.681Z,57.33
2023-01-28T16:10:19.928Z,57.33
2023-01-28T16:11:52.044Z,57.53
2023-01-28T16:13:24.900Z,57.28
2023-01-28T16:15:04.709Z,57.78
2023-01-28T16:16:40.202Z,57.44
2023-01-28T16:18:31.288Z,57.47
2023-01-28T16:20:04.221Z,57.53
2023-01-28T16:21:41.198Z,57.52
2023-01-28T16:23:20.692Z,57.29
2023-01-28T16:24:53.205Z,57.50
2023-01-28T16:26:28.259Z,57.49
2023-01-28T16:28:00.825Z,57.49
2023-01-28T16:29:32.540Z,57.49
2023-01-28T16:31:06.278Z,57.77
2023-01-28T16:32:38.978Z,57.61
2023-01-28T16:34:11.335Z,58.15
2023-01-28T16:36:04.419Z,57.47
2023-01-28T16:37:34.831Z,57.86
2023-01-28T16:39:13.672Z,57.40
2023-01-28T16:40:45.859Z,57.37
2023-01-28T16:42:17.843Z,57.41
2023-01-28T16:43:49.850Z,57.74
2023-01-28T16:45:22.532Z,57.74
2023-01-28T16:46:54.955Z,57.76
2023-01-28T16:48:28.086Z,57.80
2023-01-28T16:49:59.684Z,57.06
2023-01-28T16:51:31.311Z,57.27
2023-01-28T16:53:04.479Z,57.34
2023-01-28T16:54:36.297Z,57.06
2023-01-28T16:56:19.752Z,57.39
2023-01-28T16:58:01.533Z,57.43
2023-01-28T16:59:33.305Z,57.12
2023-01-28T17:01:05.211Z,57.61
2023-01-28T17:02:37.015Z,57.39
2023-01-28T17:04:12.766Z,57.80
2023-01-28T17:05:47.740Z,57.31
2023-01-28T17:07:19.971Z,57.76
2023-01-28T17:08:58.189Z,57.47
2023-01-28T17:10:32.194Z,57.49
2023-01-28T17:12:07.088Z,57.38
2023-01-28T17:13:38.979Z,57.52
2023-01-28T17:15:10.887Z,57.36
2023-01-28T17:16:42.566Z,57.30
2023-01-28T17:18:14.176Z,57.38
2023-01-28T17:19:45.802Z,57.21
2023-01-28T17:21:18.039Z,57.59
2023-01-28T17:22:50.118Z,57.45
2023-01-28T17:24:23.297Z,57.22
2023-01-28T17:25:55.070Z,57.18
2023-01-28T17:27:26.884Z,57.63
2023-01-28T17:28:59.267Z,57.09
2023-01-28T17:30:30.934Z,57.23
2023-01-28T17:32:02.628Z,57.18
2023-01-28T17:33:34.411Z,57.11
2023-01-28T17:35:06.435Z,57.08
2023-01-28T17:36:38.266Z,57.17
2023-01-28T17:38:09.929Z,57.15
2023-01-28T17:39:41.962Z,57.26
2023-01-28T17:41:16.060Z,57.14
2023-01-28T17:42:50.869Z,57.05
2023-01-28T17:44:22.616Z,57.23
2023-01-28T17:45:54.617Z,56.86
2023-01-28T17:47:26.243Z,56.75
2023-01-28T17:49:00.194Z,56.61
2023-01-28T17:50:31.917Z,56.71
2023-01-28T17:52:06.249Z,57.12
2023-01-28T17:53:37.865Z,56.58
2023-01-28T17:55:11.130Z,56.15
2023-01-28T17:56:42.842Z,56.70
2023-01-28T17:58:14.501Z,56.60
2023-01-28T17:59:46.225Z,56.37
2023-01-28T18:01:22.027Z,56.67
2023-01-28T18:02:53.867Z,56.16
2023-01-28T18:04:26.086Z,57.05
2023-01-28T18:05:59.064Z,56.83
2023-01-28T18:07:33.524Z,56.94
2023-01-28T18:09:05.352Z,56.91
2023-01-28T18:10:37.372Z,57.12
2023-01-28T18:12:09.990Z,56.96
2023-01-28T18:13:41.955Z,56.90
2023-01-28T18:15:13.923Z,57.16
2023-01-28T18:16:48.081Z,57.09
2023-01-28T18:18:19.679Z,57.33
2023-01-28T18:19:51.254Z,57.77
2023-01-28T18:21:27.976Z,57.80
2023-01-28T18:22:59.650Z,57.91
2023-01-28T18:24:31.356Z,57.87
2023-01-28T18:26:05.615Z,57.33
2023-01-28T18:27:37.350Z,57.58
2023-01-28T18:29:09.435Z,57.13
2023-01-28T18:30:41.028Z,57.75
2023-01-28T18:32:12.608Z,57.72
2023-01-28T18:33:44.125Z,57.33
2023-01-28T18:35:16.247Z,57.67
2023-01-28T18:36:48.222Z,57.98
2023-01-28T18:38:20.426Z,57.71
2023-01-28T18:39:51.890Z,57.39
2023-01-28T18:41:23.695Z,57.91
2023-01-28T18:42:55.191Z,57.66
2023-01-28T18:44:27.161Z,57.79
2023-01-28T18:46:00.333Z,57.64
2023-01-28T18:47:32.328Z,57.88
2023-01-28T18:49:03.848Z,57.50
2023-01-28T18:50:35.536Z,57.34
2023-01-28T18:52:07.538Z,57.72
2023-01-28T18:53:39.370Z,57.88
2023-01-28T18:55:10.963Z,57.88
2023-01-28T18:56:42.917Z,57.94
2023-01-28T18:58:14.524Z,57.21
2023-01-28T18:59:47.198Z,57.74
2023-01-28T19:01:18.888Z,57.28
2023-01-28T19:02:50.732Z,57.15
2023-01-28T19:04:22.550Z,57.12
2023-01-28T19:05:54.281Z,57.00
2023-01-28T19:07:25.897Z,57.34
2023-01-28T19:08:58.268Z,57.56
2023-01-28T19:10:29.949Z,57.31
2023-01-28T19:12:01.835Z,57.40
2023-01-28T19:13:33.345Z,57.54
2023-01-28T19:15:05.117Z,57.19
2023-01-28T19:16:37.421Z,57.37
2023-01-28T19:18:12.175Z,57.68
2023-01-28T19:19:43.891Z,58.09
2023-01-28T19:21:15.881Z,58.18
2023-01-28T19:22:47.563Z,57.51
2023-01-28T19:24:19.475Z,57.83
2023-01-28T19:25:51.053Z,58.43
2023-01-28T19:27:22.542Z,58.20
2023-01-28T19:28:54.182Z,58.19
2023-01-28T19:30:25.864Z,58.07
2023-01-28T19:31:57.817Z,58.02
2023-01-28T19:33:29.525Z,58.16
2023-01-28T19:35:01.443Z,58.06
2023-01-28T19:36:33.731Z,58.21
2023-01-28T19:38:05.577Z,58.26
2023-01-28T19:39:37.138Z,58.18
2023-01-28T19:41:08.723Z,58.53
2023-01-28T19:42:40.234Z,58.05
2023-01-28T19:44:12.356Z,58.14
2023-01-28T19:45:44.147Z,58.41
2023-01-28T19:47:15.759Z,58.05
2023-01-28T19:48:47.343Z,58.03
2023-01-28T19:50:19.021Z,58.02
2023-01-28T19:51:50.705Z,58.18
2023-01-28T19:53:22.312Z,58.04
2023-01-28T19:54:54.043Z,57.92
2023-01-28T19:56:26.037Z,58.09
2023-01-28T19:57:57.916Z,58.47
2023-01-28T19:59:30.048Z,58.22
2023-01-28T20:01:21.111Z,57.71
2023-01-28T20:02:52.966Z,58.52
2023-01-28T20:04:24.845Z,58.09
2023-01-28T20:05:59.797Z,58.06
2023-01-28T20:07:31.788Z,58.69
2023-01-28T20:09:05.415Z,58.69
2023-01-28T20:10:37.310Z,58.44
2023-01-28T20:12:12.156Z,58.38
2023-01-28T20:13:44.977Z,58.66
2023-01-28T20:15:17.147Z,58.04
2023-01-28T20:16:49.324Z,58.42
2023-01-28T20:18:21.192Z,57.89
2023-01-28T20:19:53.366Z,57.91